Time;durP1;ratioP1;P1;durP2;ratioP2;P2;SDS_P1;SDS_P2;PMS_P1;PMS_P2;Temp;Humidity;BMP_temperature;BMP_pressure;BME280_temperature;BME280_humidity;BME280_pressure;Samples;Min_cycle;Max_cycle;Signal;HPM_P1;HPM_P2
2021/11/19 00:00:52;;;;;;;30.30;24.50;;;;;;;;;;5000423;28;20227;-73
2021/11/19 00:03:17;;;;;;;27.67;22.37;;;;;;;;;;5016334;28;20315;-73
2021/11/19 00:05:46;;;;;;;29.70;23.33;;;;;;;;;;4998449;28;20228;-73
2021/11/19 00:08:12;;;;;;;32.57;26.83;;;;;;;;;;5014687;28;20220;-73
2021/11/19 00:10:37;;;;;;;29.97;25.80;;;;;;;;;;4998798;28;20250;-73
2021/11/19 00:13:06;;;;;;;31.73;26.37;;;;;;;;;;5030796;28;20299;-73
2021/11/19 00:15:32;;;;;;;27.03;23.27;;;;;;;;;;5011158;28;20832;-75
2021/11/19 00:17:58;;;;;;;29.87;26.00;;;;;;;;;;5028343;28;20227;-75
2021/11/19 00:20:28;;;;;;;31.93;26.13;;;;;;;;;;5041438;28;20223;-73
2021/11/19 00:22:56;;;;;;;30.50;25.80;;;;;;;;;;5031406;28;20231;-73
2021/11/19 00:25:22;;;;;;;32.70;24.93;;;;;;;;;;4997551;28;20235;-74
2021/11/19 00:27:54;;;;;;;33.33;26.77;;;;;;;;;;4999471;28;20220;-73
2021/11/19 00:30:23;;;;;;;34.73;27.73;;;;;;;;;;5014237;28;20731;-73
2021/11/19 00:32:49;;;;;;;38.07;28.40;;;;;;;;;;5014415;28;20237;-75
2021/11/19 00:35:16;;;;;;;35.03;27.60;;;;;;;;;;5008075;28;20286;-74
2021/11/19 00:37:43;;;;;;;33.53;26.97;;;;;;;;;;5014579;28;20220;-74
2021/11/19 00:40:28;;;;;;;35.23;27.63;;;;;;;;;;4994386;28;20225;-74
2021/11/19 00:42:55;;;;;;;35.90;27.03;;;;;;;;;;4997116;28;20601;-74
2021/11/19 00:45:24;;;;;;;33.73;26.50;;;;;;;;;;5019980;28;20225;-75
2021/11/19 00:47:55;;;;;;;35.90;26.60;;;;;;;;;;4996798;28;20217;-74
2021/11/19 00:50:23;;;;;;;33.63;26.33;;;;;;;;;;5022699;28;20252;-72
2021/11/19 00:52:56;;;;;;;38.23;29.90;;;;;;;;;;4998182;28;20314;-74
2021/11/19 00:55:25;;;;;;;39.43;29.17;;;;;;;;;;4997960;28;20663;-74
2021/11/19 00:57:55;;;;;;;37.83;29.70;;;;;;;;;;4999021;28;20227;-74
2021/11/19 01:00:29;;;;;;;40.07;30.77;;;;;;;;;;5029556;28;20231;-75
2021/11/19 01:02:56;;;;;;;45.70;32.47;;;;;;;;;;4998097;28;20657;-74
2021/11/19 01:05:26;;;;;;;44.63;31.63;;;;;;;;;;5029139;28;20224;-74
2021/11/19 01:07:53;;;;;;;45.13;32.33;;;;;;;;;;5014333;28;20622;-75
2021/11/19 01:10:26;;;;;;;42.77;32.03;;;;;;;;;;5029374;28;20216;-74
2021/11/19 01:12:55;;;;;;;43.73;31.20;;;;;;;;;;5011915;28;20216;-74
2021/11/19 01:15:34;;;;;;;39.17;31.17;;;;;;;;;;5014041;28;20220;-73
2021/11/19 01:18:03;;;;;;;42.37;31.50;;;;;;;;;;5014319;28;20576;-75
2021/11/19 01:21:00;;;;;;;39.47;30.70;;;;;;;;;;5010568;28;20594;-74
2021/11/19 01:23:28;;;;;;;41.53;31.13;;;;;;;;;;5009464;28;20879;-73
2021/11/19 01:25:56;;;;;;;38.23;30.53;;;;;;;;;;5022305;28;20220;-74
2021/11/19 01:28:27;;;;;;;41.27;31.43;;;;;;;;;;5013280;28;20215;-74
2021/11/19 01:31:14;;;;;;;36.87;29.10;;;;;;;;;;5005464;28;20227;-74
2021/11/19 01:33:40;;;;;;;37.60;30.17;;;;;;;;;;5015108;28;20644;-75
2021/11/19 01:36:30;;;;;;;37.90;27.87;;;;;;;;;;5006110;28;20371;-74
2021/11/19 01:39:18;;;;;;;37.63;28.17;;;;;;;;;;5033813;28;20748;-74
2021/11/19 01:42:19;;;;;;;37.67;27.90;;;;;;;;;;5013188;28;20231;-73
2021/11/19 01:45:12;;;;;;;36.47;27.90;;;;;;;;;;4979074;28;20224;-74
2021/11/19 01:47:41;;;;;;;30.20;23.47;;;;;;;;;;5014588;28;20224;-74
2021/11/19 01:50:30;;;;;;;35.50;26.57;;;;;;;;;;4981062;28;20315;-74
2021/11/19 01:53:07;;;;;;;34.60;26.30;;;;;;;;;;5016644;28;20212;-74
2021/11/19 01:55:38;;;;;;;32.97;27.53;;;;;;;;;;5028905;28;20810;-74
2021/11/19 01:58:12;;;;;;;34.90;26.30;;;;;;;;;;4996890;28;20215;-74
2021/11/19 02:00:42;;;;;;;34.20;27.47;;;;;;;;;;5009418;28;20221;-73
2021/11/19 02:03:11;;;;;;;35.10;26.43;;;;;;;;;;5009548;28;20236;-74
2021/11/19 02:06:02;;;;;;;34.50;26.57;;;;;;;;;;5012396;28;20303;-73
2021/11/19 02:08:31;;;;;;;32.23;24.83;;;;;;;;;;5015742;28;20224;-74
2021/11/19 02:11:41;;;;;;;35.33;25.53;;;;;;;;;;5001741;28;20277;-73
2021/11/19 02:14:24;;;;;;;34.33;25.63;;;;;;;;;;5026938;28;20346;-73
2021/11/19 02:16:58;;;;;;;33.43;26.00;;;;;;;;;;5012578;28;20223;-73
2021/11/19 02:19:32;;;;;;;38.37;26.50;;;;;;;;;;5012662;28;21005;-73
2021/11/19 02:21:58;;;;;;;40.20;29.73;;;;;;;;;;5007250;28;20663;-73
2021/11/19 02:24:35;;;;;;;36.97;27.53;;;;;;;;;;5011935;28;20220;-73
2021/11/19 02:27:14;;;;;;;38.37;28.37;;;;;;;;;;5012713;28;20224;-73
2021/11/19 02:29:48;;;;;;;38.33;25.90;;;;;;;;;;5012726;28;20219;-73
2021/11/19 02:32:23;;;;;;;34.73;25.80;;;;;;;;;;4991587;28;20231;-73
2021/11/19 02:34:56;;;;;;;38.17;27.67;;;;;;;;;;5002071;28;20242;-73
2021/11/19 02:37:38;;;;;;;38.90;27.33;;;;;;;;;;5024443;28;20236;-73
2021/11/19 02:40:11;;;;;;;38.83;28.03;;;;;;;;;;5007775;28;20279;-72
2021/11/19 02:42:48;;;;;;;35.63;27.97;;;;;;;;;;5008457;28;20233;-72
2021/11/19 02:45:23;;;;;;;40.40;27.70;;;;;;;;;;5005498;28;20227;-73
2021/11/19 02:48:02;;;;;;;35.10;26.90;;;;;;;;;;5002101;28;20599;-74
2021/11/19 02:50:28;;;;;;;37.33;28.17;;;;;;;;;;4984810;28;20709;-73
2021/11/19 02:52:57;;;;;;;38.20;28.13;;;;;;;;;;4980408;28;20220;-74
2021/11/19 02:55:34;;;;;;;35.90;27.03;;;;;;;;;;4991274;28;20226;-73
2021/11/19 02:57:59;;;;;;;34.93;26.90;;;;;;;;;;5025574;28;20377;-72
2021/11/19 03:00:44;;;;;;;33.00;26.13;;;;;;;;;;4995545;28;20224;-74
2021/11/19 03:03:13;;;;;;;33.73;25.13;;;;;;;;;;5028376;28;20590;-75
2021/11/19 03:05:43;;;;;;;34.33;26.40;;;;;;;;;;5029714;28;20290;-73
2021/11/19 03:08:10;;;;;;;38.13;26.73;;;;;;;;;;5028495;28;20701;-74
2021/11/19 03:10:40;;;;;;;34.53;26.03;;;;;;;;;;5012744;28;20227;-75
2021/11/19 03:13:06;;;;;;;35.10;25.37;;;;;;;;;;5009718;28;20598;-74
2021/11/19 03:15:36;;;;;;;38.00;26.77;;;;;;;;;;4977505;28;20278;-75
2021/11/19 03:18:03;;;;;;;31.87;24.73;;;;;;;;;;4991096;28;20243;-74
2021/11/19 03:20:28;;;;;;;34.20;26.27;;;;;;;;;;5013081;28;20595;-74
2021/11/19 03:22:54;;;;;;;36.27;27.23;;;;;;;;;;4979551;28;20228;-74
2021/11/19 03:25:24;;;;;;;33.57;25.83;;;;;;;;;;4995801;28;20219;-75
2021/11/19 03:27:51;;;;;;;35.13;26.67;;;;;;;;;;4998185;28;20208;-74
2021/11/19 03:30:27;;;;;;;35.50;26.90;;;;;;;;;;5032201;28;20212;-75
2021/11/19 03:32:55;;;;;;;35.47;26.93;;;;;;;;;;5016471;28;20214;-73
2021/11/19 03:35:23;;;;;;;35.03;27.40;;;;;;;;;;5015417;28;20220;-74
2021/11/19 03:37:49;;;;;;;39.63;27.93;;;;;;;;;;5013710;28;20286;-75
2021/11/19 03:40:17;;;;;;;34.47;26.97;;;;;;;;;;5028484;28;20209;-74
2021/11/19 03:42:45;;;;;;;37.63;26.67;;;;;;;;;;5029220;28;20223;-74
2021/11/19 03:45:28;;;;;;;40.37;28.53;;;;;;;;;;4979850;28;20224;-74
2021/11/19 03:47:59;;;;;;;36.47;26.03;;;;;;;;;;4991870;28;20300;-74
2021/11/19 03:50:30;;;;;;;39.00;27.33;;;;;;;;;;5032032;28;20220;-73
2021/11/19 03:52:57;;;;;;;38.20;27.00;;;;;;;;;;5006615;28;20230;-74
2021/11/19 03:55:37;;;;;;;38.93;26.70;;;;;;;;;;4999680;28;20712;-75
2021/11/19 03:58:05;;;;;;;39.57;28.10;;;;;;;;;;5016057;28;20247;-74
2021/11/19 04:00:34;;;;;;;39.23;27.13;;;;;;;;;;4999186;28;20247;-72
2021/11/19 04:03:01;;;;;;;37.70;27.40;;;;;;;;;;4999082;28;20231;-73
2021/11/19 04:05:31;;;;;;;38.27;27.43;;;;;;;;;;5031434;28;20231;-73
2021/11/19 04:08:01;;;;;;;41.17;26.93;;;;;;;;;;5020400;28;20588;-71
2021/11/19 04:10:32;;;;;;;40.77;26.80;;;;;;;;;;5001124;28;20270;-74
2021/11/19 04:13:08;;;;;;;38.77;26.77;;;;;;;;;;5023391;28;20217;-74
2021/11/19 04:15:47;;;;;;;37.43;26.27;;;;;;;;;;5008692;28;20229;-73
2021/11/19 04:18:15;;;;;;;37.47;27.07;;;;;;;;;;5009059;28;20222;-73
2021/11/19 04:20:41;;;;;;;42.03;27.63;;;;;;;;;;5008608;28;20227;-73
2021/11/19 04:23:07;;;;;;;35.33;25.17;;;;;;;;;;5039739;28;20220;-73
2021/11/19 04:25:33;;;;;;;32.90;25.33;;;;;;;;;;5022671;28;20224;-73
2021/11/19 04:28:04;;;;;;;36.03;27.03;;;;;;;;;;5038444;28;20216;-74
2021/11/19 04:30:43;;;;;;;41.37;26.37;;;;;;;;;;5034762;28;20690;-73
2021/11/19 04:33:09;;;;;;;33.57;25.43;;;;;;;;;;5017997;28;20216;-73
2021/11/19 04:35:37;;;;;;;37.03;26.63;;;;;;;;;;4999484;28;20216;-74
2021/11/19 04:38:04;;;;;;;38.77;27.23;;;;;;;;;;5014870;28;20220;-75
2021/11/19 04:40:33;;;;;;;35.73;24.93;;;;;;;;;;5015021;28;20216;-74
2021/11/19 04:43:02;;;;;;;38.10;26.83;;;;;;;;;;4999534;28;20243;-74
2021/11/19 04:45:28;;;;;;;34.83;25.60;;;;;;;;;;5015061;28;20235;-75
2021/11/19 04:47:59;;;;;;;33.97;26.07;;;;;;;;;;5015548;28;20220;-74
2021/11/19 04:50:28;;;;;;;33.83;25.90;;;;;;;;;;4998856;28;20228;-73
2021/11/19 04:52:54;;;;;;;37.40;26.33;;;;;;;;;;5029524;28;20221;-75
2021/11/19 04:55:22;;;;;;;40.17;26.40;;;;;;;;;;5017381;28;20243;-74
2021/11/19 04:57:52;;;;;;;37.17;25.87;;;;;;;;;;4996466;28;20217;-73
2021/11/19 05:00:29;;;;;;;35.83;26.83;;;;;;;;;;4998094;28;20236;-74
2021/11/19 05:03:34;;;;;;;36.60;26.27;;;;;;;;;;5016687;28;20223;-73
2021/11/19 05:06:02;;;;;;;36.03;26.60;;;;;;;;;;4998882;28;20223;-73
2021/11/19 05:08:27;;;;;;;39.57;27.37;;;;;;;;;;5031199;28;20689;-73
2021/11/19 05:10:57;;;;;;;37.00;27.23;;;;;;;;;;5014756;28;20223;-74
2021/11/19 05:13:28;;;;;;;41.83;27.83;;;;;;;;;;5003103;28;20216;-73
2021/11/19 05:16:04;;;;;;;36.90;26.80;;;;;;;;;;5016143;28;20235;-74
2021/11/19 05:18:35;;;;;;;39.20;27.53;;;;;;;;;;5014602;28;20301;-75
2021/11/19 05:21:04;;;;;;;37.37;27.07;;;;;;;;;;4998711;28;20303;-74
2021/11/19 05:23:29;;;;;;;38.53;27.77;;;;;;;;;;4997149;28;20244;-74
2021/11/19 05:25:58;;;;;;;40.60;28.10;;;;;;;;;;4997599;28;20224;-75
2021/11/19 05:28:25;;;;;;;36.87;28.37;;;;;;;;;;5014491;28;20220;-74
2021/11/19 05:30:56;;;;;;;37.83;28.30;;;;;;;;;;5013995;28;20216;-73
2021/11/19 05:33:26;;;;;;;39.67;28.47;;;;;;;;;;5013706;28;20223;-74
2021/11/19 05:35:52;;;;;;;37.40;27.90;;;;;;;;;;5029477;28;20220;-74
2021/11/19 05:38:18;;;;;;;39.43;27.80;;;;;;;;;;5013230;28;20224;-74
2021/11/19 05:40:46;;;;;;;38.57;27.93;;;;;;;;;;4999537;28;20223;-74
2021/11/19 05:43:17;;;;;;;34.07;25.67;;;;;;;;;;4990630;28;20224;-74
2021/11/19 05:46:12;;;;;;;35.83;24.53;;;;;;;;;;5011498;28;20220;-74
2021/11/19 05:48:47;;;;;;;35.20;25.43;;;;;;;;;;4997194;28;20231;-74
2021/11/19 05:51:18;;;;;;;36.93;25.97;;;;;;;;;;5004012;28;20588;-74
2021/11/19 05:53:46;;;;;;;33.63;23.53;;;;;;;;;;5010615;28;20294;-72
2021/11/19 05:56:16;;;;;;;34.37;26.57;;;;;;;;;;5009762;28;20288;-75
2021/11/19 05:58:42;;;;;;;34.90;26.63;;;;;;;;;;4994059;28;20636;-74
2021/11/19 06:01:16;;;;;;;41.70;26.20;;;;;;;;;;5001731;28;20248;-73
2021/11/19 06:03:55;;;;;;;33.80;26.17;;;;;;;;;;5003336;28;20740;-73
2021/11/19 06:06:37;;;;;;;31.00;23.70;;;;;;;;;;5025879;28;20219;-74
2021/11/19 06:09:14;;;;;;;33.20;25.70;;;;;;;;;;5010140;28;20608;-74
2021/11/19 06:11:49;;;;;;;35.47;25.10;;;;;;;;;;4994047;28;20221;-74
2021/11/19 06:14:24;;;;;;;35.60;25.43;;;;;;;;;;5002415;28;20224;-73
2021/11/19 06:17:12;;;;;;;34.40;24.67;;;;;;;;;;5027957;28;20219;-74
2021/11/19 06:19:40;;;;;;;32.83;23.60;;;;;;;;;;5028921;28;20633;-73
2021/11/19 06:22:15;;;;;;;29.73;24.13;;;;;;;;;;5011597;28;20220;-73
2021/11/19 06:24:45;;;;;;;35.77;23.50;;;;;;;;;;4997435;28;20219;-73
2021/11/19 06:27:12;;;;;;;36.07;24.77;;;;;;;;;;4977109;28;20338;-73
2021/11/19 06:29:41;;;;;;;33.27;24.83;;;;;;;;;;5011781;28;20265;-73
2021/11/19 06:32:07;;;;;;;33.30;24.53;;;;;;;;;;5010811;28;20413;-73
2021/11/19 06:34:34;;;;;;;31.70;23.97;;;;;;;;;;5012552;28;20539;-73
2021/11/19 06:37:02;;;;;;;33.17;23.73;;;;;;;;;;5029036;28;20219;-73
2021/11/19 06:39:41;;;;;;;34.20;24.53;;;;;;;;;;5000431;28;20219;-73
2021/11/19 06:42:09;;;;;;;31.97;23.97;;;;;;;;;;4989818;28;20314;-74
2021/11/19 06:44:55;;;;;;;31.33;23.47;;;;;;;;;;5000257;28;20591;-73
2021/11/19 06:47:43;;;;;;;32.53;20.80;;;;;;;;;;5015939;28;20251;-73
2021/11/19 06:50:37;;;;;;;32.40;22.77;;;;;;;;;;5017984;28;20303;-73
2021/11/19 06:53:14;;;;;;;30.53;22.80;;;;;;;;;;5000253;28;20220;-74
2021/11/19 06:56:02;;;;;;;33.67;24.70;;;;;;;;;;5009939;28;20224;-73
2021/11/19 06:58:48;;;;;;;28.93;23.27;;;;;;;;;;4997073;28;20219;-73
2021/11/19 07:01:13;;;;;;;27.33;22.63;;;;;;;;;;5007292;28;20680;-73
2021/11/19 07:03:39;;;;;;;30.60;23.47;;;;;;;;;;5003114;28;20230;-73
2021/11/19 07:06:08;;;;;;;31.80;24.33;;;;;;;;;;5000400;28;20231;-74
2021/11/19 07:08:36;;;;;;;33.10;24.43;;;;;;;;;;5034527;28;20273;-72
2021/11/19 07:11:06;;;;;;;28.20;22.13;;;;;;;;;;5022174;28;20346;-74
2021/11/19 07:13:31;;;;;;;29.07;23.53;;;;;;;;;;5016513;28;20219;-74
2021/11/19 07:15:57;;;;;;;27.40;22.33;;;;;;;;;;5015737;28;20278;-74
2021/11/19 07:18:23;;;;;;;29.83;23.13;;;;;;;;;;5001100;28;20218;-74
2021/11/19 07:20:49;;;;;;;27.80;21.73;;;;;;;;;;5016851;28;20307;-73
2021/11/19 07:23:20;;;;;;;27.83;22.37;;;;;;;;;;5017387;28;20639;-73
2021/11/19 07:25:48;;;;;;;33.70;23.73;;;;;;;;;;5016619;28;20265;-73
2021/11/19 07:28:16;;;;;;;30.10;23.20;;;;;;;;;;5033455;28;20212;-74
2021/11/19 07:30:51;;;;;;;28.60;21.80;;;;;;;;;;5017373;28;20212;-74
2021/11/19 07:33:39;;;;;;;29.20;21.57;;;;;;;;;;5001953;28;20227;-73
2021/11/19 07:36:24;;;;;;;23.80;20.23;;;;;;;;;;5004816;28;20298;-73
2021/11/19 07:39:08;;;;;;;30.40;20.87;;;;;;;;;;5010758;28;20303;-74
2021/11/19 07:41:57;;;;;;;26.00;20.37;;;;;;;;;;5013026;28;20225;-74
2021/11/19 07:44:40;;;;;;;28.90;22.40;;;;;;;;;;4999359;28;20251;-74
2021/11/19 07:47:15;;;;;;;26.03;21.57;;;;;;;;;;5004177;28;20224;-75
2021/11/19 07:49:42;;;;;;;28.10;21.87;;;;;;;;;;5049624;28;20223;-74
2021/11/19 07:52:11;;;;;;;28.20;21.60;;;;;;;;;;5025474;28;20212;-73
2021/11/19 07:54:37;;;;;;;27.33;22.13;;;;;;;;;;5032930;28;20533;-74
2021/11/19 07:57:03;;;;;;;24.33;21.07;;;;;;;;;;5032556;28;20220;-73
2021/11/19 07:59:32;;;;;;;25.57;21.00;;;;;;;;;;5015248;28;20311;-73
2021/11/19 08:02:02;;;;;;;22.80;19.43;;;;;;;;;;5000199;28;20224;-73
2021/11/19 08:04:29;;;;;;;24.63;19.60;;;;;;;;;;5015404;28;20224;-73
2021/11/19 08:06:57;;;;;;;26.03;19.97;;;;;;;;;;4988928;28;20223;-72
2021/11/19 08:09:41;;;;;;;26.20;20.20;;;;;;;;;;5033510;28;20216;-72
2021/11/19 08:12:15;;;;;;;26.10;19.80;;;;;;;;;;5016798;28;20212;-72
2021/11/19 08:14:47;;;;;;;25.07;19.07;;;;;;;;;;4999576;28;20251;-74
2021/11/19 08:17:23;;;;;;;27.30;20.70;;;;;;;;;;5004789;28;20220;-73
2021/11/19 08:19:53;;;;;;;23.10;19.67;;;;;;;;;;5002171;28;20248;-74
2021/11/19 08:22:19;;;;;;;22.57;18.43;;;;;;;;;;5015486;28;20220;-74
2021/11/19 08:24:45;;;;;;;22.47;19.27;;;;;;;;;;5034090;28;20250;-73
2021/11/19 08:27:16;;;;;;;25.97;20.00;;;;;;;;;;5030366;28;20220;-73
2021/11/19 08:29:44;;;;;;;21.60;18.87;;;;;;;;;;5012472;28;20220;-73
2021/11/19 08:32:10;;;;;;;23.13;20.07;;;;;;;;;;5008245;28;20300;-75
2021/11/19 08:34:35;;;;;;;22.73;18.93;;;;;;;;;;5016682;28;20247;-74
2021/11/19 08:37:04;;;;;;;21.73;18.17;;;;;;;;;;5017570;28;20636;-74
2021/11/19 08:39:29;;;;;;;22.37;18.03;;;;;;;;;;5032304;28;20215;-73
2021/11/19 08:41:55;;;;;;;24.30;18.50;;;;;;;;;;5032954;28;20277;-74
2021/11/19 08:44:23;;;;;;;20.70;17.90;;;;;;;;;;4984353;28;20220;-74
2021/11/19 08:46:50;;;;;;;22.70;18.87;;;;;;;;;;5016672;28;20295;-73
2021/11/19 08:49:21;;;;;;;20.77;17.10;;;;;;;;;;5013230;28;20227;-73
2021/11/19 08:51:48;;;;;;;23.20;18.57;;;;;;;;;;5016241;28;20213;-73
2021/11/19 08:54:30;;;;;;;21.70;18.27;;;;;;;;;;4995923;28;20219;-74
2021/11/19 08:57:07;;;;;;;24.80;17.87;;;;;;;;;;5032982;28;20231;-74
2021/11/19 09:00:36;;;;;;;;;;;;;;;;;;;;;
2021/11/19 09:03:02;;;;;;;20.70;18.27;;;;;;;;;;5040467;28;20255;-74
2021/11/19 09:05:30;;;;;;;21.00;17.57;;;;;;;;;;5026712;28;20260;-74
2021/11/19 09:07:58;;;;;;;20.80;17.97;;;;;;;;;;5035348;28;20208;-74
2021/11/19 09:10:24;;;;;;;19.47;17.40;;;;;;;;;;5020672;28;20222;-74
2021/11/19 09:12:54;;;;;;;25.07;17.80;;;;;;;;;;5011360;28;20682;-73
2021/11/19 09:15:21;;;;;;;22.30;17.07;;;;;;;;;;5011208;28;20236;-73
2021/11/19 09:18:13;;;;;;;20.17;16.73;;;;;;;;;;4999099;28;20354;-74
2021/11/19 09:20:47;;;;;;;22.50;17.50;;;;;;;;;;4988637;28;20900;-75
2021/11/19 09:23:18;;;;;;;20.97;16.93;;;;;;;;;;5002968;28;20315;-73
2021/11/19 09:25:50;;;;;;;19.90;16.80;;;;;;;;;;5010369;28;20237;-73
2021/11/19 09:28:24;;;;;;;19.87;15.87;;;;;;;;;;4999369;28;20227;-74
2021/11/19 09:30:54;;;;;;;21.67;16.47;;;;;;;;;;4995456;28;20311;-73
2021/11/19 09:33:22;;;;;;;22.33;16.47;;;;;;;;;;4985511;28;20224;-74
2021/11/19 09:35:50;;;;;;;19.00;16.87;;;;;;;;;;5015379;28;20291;-74
2021/11/19 09:38:18;;;;;;;19.47;16.67;;;;;;;;;;5019024;28;20686;-74
2021/11/19 09:41:10;;;;;;;20.33;17.30;;;;;;;;;;5000793;28;20223;-73
2021/11/19 09:44:05;;;;;;;23.20;17.93;;;;;;;;;;5031556;28;20272;-73
2021/11/19 09:46:49;;;;;;;22.17;17.87;;;;;;;;;;5031102;28;20234;-73
2021/11/19 09:49:48;;;;;;;23.97;18.30;;;;;;;;;;5038546;28;20219;-74
2021/11/19 09:52:43;;;;;;;22.73;18.37;;;;;;;;;;5012929;28;20262;-74
2021/11/19 09:55:25;;;;;;;22.30;18.70;;;;;;;;;;5014668;28;20231;-74
2021/11/19 09:58:06;;;;;;;23.50;18.87;;;;;;;;;;5016089;28;20220;-73
2021/11/19 10:00:54;;;;;;;25.30;19.20;;;;;;;;;;5031129;28;20705;-73
2021/11/19 10:03:41;;;;;;;22.67;18.30;;;;;;;;;;5014929;28;20732;-74
2021/11/19 10:06:12;;;;;;;22.03;19.23;;;;;;;;;;5013803;28;20242;-73
2021/11/19 10:08:58;;;;;;;23.00;18.07;;;;;;;;;;4995291;28;20323;-73
2021/11/19 10:11:32;;;;;;;20.20;18.03;;;;;;;;;;4996125;28;20837;-73
2021/11/19 10:14:27;;;;;;;22.30;17.80;;;;;;;;;;5003453;28;20777;-74
2021/11/19 10:17:10;;;;;;;23.60;18.60;;;;;;;;;;5031055;28;20243;-74
2021/11/19 10:19:43;;;;;;;24.07;18.53;;;;;;;;;;5015014;28;20249;-73
2021/11/19 10:22:19;;;;;;;22.57;18.80;;;;;;;;;;4997899;28;20232;-73
2021/11/19 10:24:58;;;;;;;21.97;18.07;;;;;;;;;;5030576;28;20251;-74
2021/11/19 10:27:35;;;;;;;20.10;18.00;;;;;;;;;;5029548;28;20220;-73
2021/11/19 10:30:04;;;;;;;23.77;18.27;;;;;;;;;;5031112;28;20218;-73
2021/11/19 10:32:30;;;;;;;22.00;18.77;;;;;;;;;;5030815;28;20216;-75
2021/11/19 10:35:00;;;;;;;23.07;18.93;;;;;;;;;;5003537;28;20218;-73
2021/11/19 10:37:44;;;;;;;25.27;19.30;;;;;;;;;;5010253;28;20231;-73
2021/11/19 10:40:30;;;;;;;22.03;19.27;;;;;;;;;;5034491;28;20633;-74
2021/11/19 10:43:34;;;;;;;21.10;18.37;;;;;;;;;;4991445;28;20257;-73
2021/11/19 10:46:20;;;;;;;22.10;18.63;;;;;;;;;;5030070;28;20224;-73
2021/11/19 10:49:09;;;;;;;23.30;18.93;;;;;;;;;;5029521;28;20235;-73
2021/11/19 10:52:06;;;;;;;21.33;17.80;;;;;;;;;;5021921;28;20665;-73
2021/11/19 10:55:03;;;;;;;21.20;18.77;;;;;;;;;;4991810;28;20224;-72
2021/11/19 10:57:50;;;;;;;22.87;17.77;;;;;;;;;;5013330;28;20224;-74
2021/11/19 11:00:44;;;;;;;22.03;17.70;;;;;;;;;;5030186;28;20353;-73
2021/11/19 11:03:16;;;;;;;23.63;18.07;;;;;;;;;;5013014;28;20227;-74
2021/11/19 11:05:54;;;;;;;25.07;19.53;;;;;;;;;;5029816;28;20303;-74
2021/11/19 11:08:25;;;;;;;21.70;17.93;;;;;;;;;;4999193;28;20216;-73
2021/11/19 11:11:04;;;;;;;22.33;18.47;;;;;;;;;;5014373;28;20216;-72
2021/11/19 11:13:40;;;;;;;20.30;18.20;;;;;;;;;;5031002;28;20212;-73
2021/11/19 11:16:26;;;;;;;19.87;17.57;;;;;;;;;;5012774;28;20697;-74
2021/11/19 11:19:10;;;;;;;20.77;17.50;;;;;;;;;;5031352;28;20228;-73
2021/11/19 11:21:41;;;;;;;24.60;18.77;;;;;;;;;;4995111;28;20611;-74
2021/11/19 11:24:25;;;;;;;21.27;19.00;;;;;;;;;;4994147;28;20221;-73
2021/11/19 11:26:59;;;;;;;20.53;18.37;;;;;;;;;;4994613;28;20217;-74
2021/11/19 11:29:50;;;;;;;21.90;18.00;;;;;;;;;;5011074;28;20694;-73
2021/11/19 11:32:30;;;;;;;21.33;17.40;;;;;;;;;;5015342;28;20216;-73
2021/11/19 11:35:19;;;;;;;20.23;17.27;;;;;;;;;;5029563;28;20301;-73
2021/11/19 11:38:16;;;;;;;19.13;17.27;;;;;;;;;;5014034;28;20379;-74
2021/11/19 11:40:51;;;;;;;18.20;16.30;;;;;;;;;;4992625;28;20321;-73
2021/11/19 11:43:39;;;;;;;19.33;16.60;;;;;;;;;;5030164;28;20231;-73
2021/11/19 11:47:05;;;;;;;21.57;17.07;;;;;;;;;;5014143;28;20224;-74
2021/11/19 11:49:32;;;;;;;21.77;16.47;;;;;;;;;;4991988;28;20225;-74
2021/11/19 11:52:33;;;;;;;22.10;17.73;;;;;;;;;;4992690;28;20226;-73
2021/11/19 11:55:15;;;;;;;21.00;16.80;;;;;;;;;;5010371;28;20227;-73
2021/11/19 11:57:47;;;;;;;22.80;15.93;;;;;;;;;;5022526;28;20312;-74
2021/11/19 12:00:18;;;;;;;18.93;15.80;;;;;;;;;;5018859;28;20600;-74
2021/11/19 12:03:08;;;;;;;16.83;15.03;;;;;;;;;;5033608;28;20231;-75
2021/11/19 12:06:13;;;;;;;17.07;14.33;;;;;;;;;;5019328;28;20648;-74
2021/11/19 12:08:52;;;;;;;16.93;15.00;;;;;;;;;;4985071;28;20616;-74
2021/11/19 12:11:45;;;;;;;19.50;14.87;;;;;;;;;;5037766;28;20244;-75
2021/11/19 12:14:10;;;;;;;17.00;14.50;;;;;;;;;;5033994;28;20228;-74
2021/11/19 12:17:01;;;;;;;20.20;14.07;;;;;;;;;;5033067;28;20251;-74
2021/11/19 12:19:42;;;;;;;17.30;13.43;;;;;;;;;;5001148;28;20216;-74
2021/11/19 12:22:18;;;;;;;19.20;13.30;;;;;;;;;;5032437;28;20270;-74
2021/11/19 12:25:24;;;;;;;18.63;13.73;;;;;;;;;;5016210;28;20219;-75
2021/11/19 12:27:57;;;;;;;20.17;13.23;;;;;;;;;;5038671;28;20223;-74
2021/11/19 12:30:44;;;;;;;17.37;13.47;;;;;;;;;;5032532;28;20589;-75
2021/11/19 12:33:26;;;;;;;17.57;12.87;;;;;;;;;;5032061;28;20220;-74
2021/11/19 12:35:54;;;;;;;13.77;11.27;;;;;;;;;;5028765;28;20215;-76
2021/11/19 12:38:30;;;;;;;14.10;11.27;;;;;;;;;;5033934;28;20281;-73
2021/11/19 12:41:12;;;;;;;14.67;11.40;;;;;;;;;;5017975;28;20212;-75
2021/11/19 12:43:41;;;;;;;15.03;10.50;;;;;;;;;;5032630;28;20231;-74
2021/11/19 12:46:35;;;;;;;12.37;9.73;;;;;;;;;;5031623;28;20216;-74
2021/11/19 12:49:16;;;;;;;11.27;8.77;;;;;;;;;;5031467;28;20239;-75
2021/11/19 12:51:47;;;;;;;13.17;9.00;;;;;;;;;;5029008;28;20701;-74
2021/11/19 12:55:01;;;;;;;10.47;8.90;;;;;;;;;;5025542;28;20262;-74
2021/11/19 12:57:45;;;;;;;13.73;8.00;;;;;;;;;;4992075;28;20275;-74
2021/11/19 13:00:25;;;;;;;14.93;8.33;;;;;;;;;;4994030;28;20227;-76
2021/11/19 13:03:15;;;;;;;11.87;7.60;;;;;;;;;;5025389;28;20289;-74
2021/11/19 13:06:13;;;;;;;10.90;7.13;;;;;;;;;;5030165;28;20269;-74
2021/11/19 13:08:42;;;;;;;10.87;7.30;;;;;;;;;;5027958;28;20303;-74
2021/11/19 13:11:28;;;;;;;10.03;6.83;;;;;;;;;;5030160;28;20715;-74
2021/11/19 13:14:19;;;;;;;11.00;7.03;;;;;;;;;;5033510;28;20273;-74
2021/11/19 13:16:58;;;;;;;10.90;6.60;;;;;;;;;;5030410;28;20224;-75
2021/11/19 13:19:32;;;;;;;12.70;6.17;;;;;;;;;;5000362;28;20310;-75
2021/11/19 13:22:08;;;;;;;8.27;5.60;;;;;;;;;;5039007;28;20227;-74
2021/11/19 13:24:39;;;;;;;8.03;5.63;;;;;;;;;;5021528;28;20247;-73
2021/11/19 13:27:10;;;;;;;11.97;5.30;;;;;;;;;;5014753;28;20255;-74
2021/11/19 13:29:36;;;;;;;10.27;5.63;;;;;;;;;;5023307;28;20224;-75
2021/11/19 13:32:31;;;;;;;8.63;5.57;;;;;;;;;;5031813;28;20222;-74
2021/11/19 13:35:14;;;;;;;10.03;5.00;;;;;;;;;;5045832;28;20223;-73
2021/11/19 13:38:02;;;;;;;13.57;5.60;;;;;;;;;;5014107;28;20635;-74
2021/11/19 13:40:28;;;;;;;10.17;4.93;;;;;;;;;;5029862;28;20216;-73
2021/11/19 13:42:57;;;;;;;7.83;4.50;;;;;;;;;;5031851;28;20224;-73
2021/11/19 13:45:29;;;;;;;7.57;4.43;;;;;;;;;;5031981;28;20311;-74
2021/11/19 13:48:06;;;;;;;8.20;4.50;;;;;;;;;;5030842;28;20251;-74
2021/11/19 13:50:58;;;;;;;12.77;4.23;;;;;;;;;;5031019;28;20277;-75
2021/11/19 13:53:28;;;;;;;9.37;4.00;;;;;;;;;;4979121;28;20220;-73
2021/11/19 13:55:56;;;;;;;8.43;3.70;;;;;;;;;;5031009;28;20263;-76
2021/11/19 13:58:36;;;;;;;9.73;3.63;;;;;;;;;;5030725;28;20794;-75
2021/11/19 14:01:13;;;;;;;9.20;3.77;;;;;;;;;;5003229;28;20299;-74
2021/11/19 14:03:42;;;;;;;6.90;3.77;;;;;;;;;;4998344;28;20709;-75
2021/11/19 14:06:25;;;;;;;7.00;3.07;;;;;;;;;;5012672;28;20615;-73
2021/11/19 14:09:11;;;;;;;6.07;3.30;;;;;;;;;;5012686;28;20242;-74
2021/11/19 14:11:40;;;;;;;10.93;3.80;;;;;;;;;;5010277;28;20223;-75
2021/11/19 14:14:25;;;;;;;9.83;3.30;;;;;;;;;;5028678;28;20231;-74
2021/11/19 14:16:56;;;;;;;7.80;3.43;;;;;;;;;;5011593;28;20290;-76
2021/11/19 14:19:59;;;;;;;8.97;3.13;;;;;;;;;;5014591;28;20227;-76
2021/11/19 14:22:29;;;;;;;10.20;3.37;;;;;;;;;;5019898;28;20228;-75
2021/11/19 14:25:16;;;;;;;8.63;3.63;;;;;;;;;;5016028;28;20216;-75
2021/11/19 14:27:50;;;;;;;8.53;3.10;;;;;;;;;;5031715;28;20218;-76
2021/11/19 14:30:28;;;;;;;8.00;3.37;;;;;;;;;;5030568;28;20226;-76
2021/11/19 14:33:00;;;;;;;6.40;2.97;;;;;;;;;;5002543;28;20630;-75
2021/11/19 14:35:30;;;;;;;6.83;2.80;;;;;;;;;;5032686;28;20231;-74
2021/11/19 14:38:06;;;;;;;8.07;3.03;;;;;;;;;;5015524;28;20303;-75
2021/11/19 14:40:50;;;;;;;7.40;2.83;;;;;;;;;;4997837;28;20230;-76
2021/11/19 14:43:17;;;;;;;7.53;3.00;;;;;;;;;;5013354;28;20223;-75
2021/11/19 14:45:49;;;;;;;9.80;2.90;;;;;;;;;;5013746;28;20212;-75
2021/11/19 14:48:40;;;;;;;9.83;2.70;;;;;;;;;;5014728;28;20229;-76
2021/11/19 14:51:24;;;;;;;8.33;2.77;;;;;;;;;;5031356;28;20228;-77
2021/11/19 14:53:54;;;;;;;6.23;2.80;;;;;;;;;;5013900;28;20753;-76
2021/11/19 14:56:26;;;;;;;5.53;2.87;;;;;;;;;;5013470;28;20226;-75
2021/11/19 14:59:06;;;;;;;8.97;2.83;;;;;;;;;;5036239;28;20235;-74
2021/11/19 15:01:37;;;;;;;7.93;3.07;;;;;;;;;;5010457;28;20222;-76
2021/11/19 15:04:17;;;;;;;7.30;2.97;;;;;;;;;;5013741;28;20282;-75
2021/11/19 15:06:45;;;;;;;9.10;3.50;;;;;;;;;;4982597;28;20224;-75
2021/11/19 15:09:28;;;;;;;9.47;3.27;;;;;;;;;;5030044;28;20208;-76